Погода Синеморецна 2 недели

Бургас, Болгария

24 июня-07 июля
  • 24июня
    Сегодня
    +20°
    +26°
    Ясно и безоблачно
    ВремяПогодаТемператураВлажностьДавлениеВетер, м/сВероятность осадков
    00:00Ясно и безоблачно+21°C82 %758 мм3.1 м/с2 %
    03:00Ясно и безоблачно+21°C85 %758 мм4.1 м/с2 %
    06:00Ясно и безоблачно+21°C85 %757 мм4.6 м/с2 %
    09:00Ясно и безоблачно+23°C78 %758 мм4.3 м/с2 %
    12:00Ясно и безоблачно+25°C70 %759 мм4.5 м/с2 %
    15:00Ясно и безоблачно+26°C67 %758 мм5.4 м/с2 %
    18:00Ясно и безоблачно+26°C69 %758 мм4.6 м/с2 %
    21:00Ясно и безоблачно+23°C76 %758 мм3.4 м/с2 %
  • 25июня
    Вторник
    +20°
    +26°
    Ясно и безоблачно
    ВремяПогодаТемператураВлажностьДавлениеВетер, м/сВероятность осадков
    00:00Ясно и безоблачно+21°C82 %759 мм2.4 м/с2 %
    03:00Ясно и безоблачно+21°C88 %759 мм3.4 м/с2 %
    06:00Ясно и безоблачно+22°C90 %759 мм4.4 м/с2 %
    09:00Ясно и безоблачно+24°C79 %760 мм5.6 м/с2 %
    12:00Ясно и безоблачно+26°C75 %761 мм5.2 м/с2 %
    15:00Ясно и безоблачно+26°C76 %761 мм5.6 м/с2 %
    18:00Практически безоблачно+25°C76 %760 мм5.6 м/с2 %
    21:00Практически безоблачно+23°C77 %761 мм2.9 м/с2 %
  • 26июня
    Среда
    +19°
    +26°
    Ясно и безоблачно
    ВремяПогодаТемператураВлажностьДавлениеВетер, м/сВероятность осадков
    00:00Ясно и безоблачно+22°C79 %761 мм1.3 м/с2 %
    03:00Ясно и безоблачно+21°C78 %761 мм2.5 м/с2 %
    06:00Ясно и безоблачно+21°C76 %761 мм3.1 м/с2 %
    09:00Ясно и безоблачно+24°C66 %761 мм4.6 м/с2 %
    12:00Ясно и безоблачно+25°C62 %762 мм4.2 м/с2 %
    15:00Ясно и безоблачно+25°C64 %761 мм4.5 м/с2 %
    18:00Ясно и безоблачно+25°C76 %760 мм4.1 м/с2 %
    21:00Ясно и безоблачно+23°C87 %761 мм2.7 м/с2 %
  • 27июня
    Четверг
    +19°
    +25°
    Ясно и безоблачно
    ВремяПогодаТемператураВлажностьДавлениеВетер, м/сВероятность осадков
    00:00Ясно и безоблачно+21°C85 %760 мм3.2 м/с2 %
    03:00Ясно и безоблачно+21°C84 %759 мм2.2 м/с2 %
    06:00Ясно и безоблачно+19°C85 %759 мм2.0 м/с2 %
    09:00Ясно и безоблачно+23°C76 %759 мм4.2 м/с2 %
    12:00Ясно и безоблачно+24°C72 %759 мм4.2 м/с2 %
    15:00Ясно и безоблачно+25°C70 %759 мм4.9 м/с2 %
    18:00Ясно и безоблачно+25°C72 %758 мм5.1 м/с2 %
    21:00Ясно и безоблачно+23°C76 %758 мм4.3 м/с2 %
  • 28июня
    Пятница
    +20°
    +26°
    Ясно и безоблачно
    ВремяПогодаТемператураВлажностьДавлениеВетер, м/сВероятность осадков
    00:00Ясно и безоблачно+21°C78 %758 мм4.0 м/с2 %
    03:00Ясно и безоблачно+20°C78 %757 мм3.8 м/с2 %
    06:00Ясно и безоблачно+20°C81 %758 мм4.1 м/с2 %
    09:00Ясно и безоблачно+23°C73 %758 мм6.2 м/с2 %
    12:00Ясно и безоблачно+24°C69 %759 мм7.0 м/с2 %
    15:00Ясно и безоблачно+25°C64 %758 мм6.5 м/с2 %
    18:00Ясно и безоблачно+25°C64 %758 мм4.8 м/с2 %
    21:00Ясно и безоблачно+23°C82 %758 мм4.6 м/с2 %
Мы используем cookies
Соглашаюсь